CheckWX is a tool to help pilots better visualize weather data.  It is not intended as a substitute for an official pre-flight weather briefing.

01:02:59 UTC

KRYW METAR
Lago Vista Tx - Rusty Allen Airport
Lago Vista, Texas, USA
Current

8 mins ago

KRYW 240055Z AUTO 28006KT 10SM CLR 18/M29 A3001 RMK AO2 T01781294
Observed
Feb-24 @ 00:55 UTC
Wind
  • 280° at 6 KTS
Visibility
10 SM
Flight Rules
VFR
Cloud Levels
  • Clear skies
Temperature
18°C / 64°F
Dewpoint
-29°C / -20°F
Humidity
3%
Altimeter
30.01" Hg
Pressure
1016.22 hPa
Previous

28 mins ago

KRYW 240035Z AUTO 28004KT 10SM CLR 18/M28 A3000 RMK AO2 T01801282
Observed
Feb-24 @ 00:35 UTC
Wind
  • 280° at 4 KTS
Visibility
10 SM
Flight Rules
VFR
Cloud Levels
  • Clear skies
Temperature
18°C / 64°F
Dewpoint
-28°C / -18°F
Humidity
3%
Altimeter
30" Hg
Pressure
1015.92 hPa
Previous

48 mins ago

KRYW 240015Z AUTO 28004KT 10SM CLR 19/M35 A2999 RMK AO2 T01891347
Observed
Feb-24 @ 00:15 UTC
Wind
  • 280° at 4 KTS
Visibility
10 SM
Flight Rules
VFR
Cloud Levels
  • Clear skies
Temperature
19°C / 66°F
Dewpoint
-35°C / -31°F
Humidity
1%
Altimeter
29.99" Hg
Pressure
1015.62 hPa